sensor_id;sensor_type;location;lat;lon;timestamp;pressure;altitude;pressure_sealevel;temperature;humidity
20119;BME280;10220;42.716;23.306;2022-12-07T00:00:41;95270.03;;;6.43;100.00
20119;BME280;10220;42.716;23.306;2022-12-07T00:03:06;95224.25;;;6.02;100.00
20119;BME280;10220;42.716;23.306;2022-12-07T00:05:31;95270.00;;;6.29;100.00
20119;BME280;10220;42.716;23.306;2022-12-07T00:07:57;95266.19;;;6.39;100.00
20119;BME280;10220;42.716;23.306;2022-12-07T00:10:22;95254.88;;;6.26;100.00
20119;BME280;10220;42.716;23.306;2022-12-07T00:12:47;95173.53;;;5.96;100.00
20119;BME280;10220;42.716;23.306;2022-12-07T00:15:13;95260.50;;;6.43;100.00
20119;BME280;10220;42.716;23.306;2022-12-07T00:17:38;95249.94;;;6.24;100.00
20119;BME280;10220;42.716;23.306;2022-12-07T00:20:04;95269.19;;;6.42;100.00
20119;BME280;10220;42.716;23.306;2022-12-07T00:22:30;95253.84;;;6.35;100.00
20119;BME280;10220;42.716;23.306;2022-12-07T00:24:55;95261.69;;;6.55;100.00
20119;BME280;10220;42.716;23.306;2022-12-07T00:27:21;95275.09;;;6.65;100.00
20119;BME280;10220;42.716;23.306;2022-12-07T00:29:47;95251.66;;;6.60;100.00
20119;BME280;10220;42.716;23.306;2022-12-07T00:32:13;95253.81;;;6.71;100.00
20119;BME280;10220;42.716;23.306;2022-12-07T00:34:38;95280.88;;;6.82;100.00
20119;BME280;10220;42.716;23.306;2022-12-07T00:37:03;95254.03;;;6.47;100.00
20119;BME280;10220;42.716;23.306;2022-12-07T00:39:29;95227.97;;;6.50;100.00
20119;BME280;10220;42.716;23.306;2022-12-07T00:41:54;95284.78;;;6.92;100.00
20119;BME280;10220;42.716;23.306;2022-12-07T00:44:20;95279.69;;;6.84;100.00
20119;BME280;10220;42.716;23.306;2022-12-07T00:46:45;95229.94;;;6.48;100.00
20119;BME280;10220;42.716;23.306;2022-12-07T00:49:11;95216.78;;;6.43;100.00
20119;BME280;10220;42.716;23.306;2022-12-07T00:51:37;95253.91;;;6.92;100.00
20119;BME280;10220;42.716;23.306;2022-12-07T00:54:02;95261.06;;;6.97;100.00
20119;BME280;10220;42.716;23.306;2022-12-07T00:56:29;95244.03;;;6.81;100.00
20119;BME280;10220;42.716;23.306;2022-12-07T00:58:59;95264.09;;;6.86;100.00
20119;BME280;10220;42.716;23.306;2022-12-07T01:01:27;95257.09;;;6.80;100.00
20119;BME280;10220;42.716;23.306;2022-12-07T01:03:53;95226.19;;;6.65;100.00
20119;BME280;10220;42.716;23.306;2022-12-07T01:06:20;95256.91;;;6.81;100.00
20119;BME280;10220;42.716;23.306;2022-12-07T01:08:45;95216.38;;;6.69;100.00
20119;BME280;10220;42.716;23.306;2022-12-07T01:11:20;95252.88;;;7.07;100.00
20119;BME280;10220;42.716;23.306;2022-12-07T01:13:46;95256.16;;;7.16;100.00
20119;BME280;10220;42.716;23.306;2022-12-07T01:16:14;95243.94;;;6.89;100.00
20119;BME280;10220;42.716;23.306;2022-12-07T01:18:40;95203.41;;;6.62;100.00
20119;BME280;10220;42.716;23.306;2022-12-07T01:21:09;95211.72;;;6.79;100.00
20119;BME280;10220;42.716;23.306;2022-12-07T01:23:36;95255.22;;;7.02;100.00
20119;BME280;10220;42.716;23.306;2022-12-07T01:26:05;95237.88;;;7.11;100.00
20119;BME280;10220;42.716;23.306;2022-12-07T01:28:31;95236.34;;;7.16;100.00
20119;BME280;10220;42.716;23.306;2022-12-07T01:31:01;95235.13;;;6.98;100.00
20119;BME280;10220;42.716;23.306;2022-12-07T01:33:28;95250.88;;;6.74;100.00
20119;BME280;10220;42.716;23.306;2022-12-07T01:35:54;95239.25;;;6.78;100.00
20119;BME280;10220;42.716;23.306;2022-12-07T01:38:20;95246.78;;;6.65;100.00
20119;BME280;10220;42.716;23.306;2022-12-07T01:40:45;95190.97;;;6.51;100.00
20119;BME280;10220;42.716;23.306;2022-12-07T01:43:18;95213.59;;;6.70;100.00
20119;BME280;10220;42.716;23.306;2022-12-07T01:45:44;95192.13;;;6.63;100.00
20119;BME280;10220;42.716;23.306;2022-12-07T01:48:11;95239.59;;;7.04;100.00
20119;BME280;10220;42.716;23.306;2022-12-07T01:50:39;95228.22;;;7.13;100.00
20119;BME280;10220;42.716;23.306;2022-12-07T01:53:08;95235.69;;;6.94;100.00
20119;BME280;10220;42.716;23.306;2022-12-07T01:55:37;95137.22;;;5.99;100.00
20119;BME280;10220;42.716;23.306;2022-12-07T01:58:04;95187.06;;;6.41;100.00
20119;BME280;10220;42.716;23.306;2022-12-07T02:00:29;95231.34;;;6.80;100.00
20119;BME280;10220;42.716;23.306;2022-12-07T02:02:59;95227.91;;;6.73;100.00
20119;BME280;10220;42.716;23.306;2022-12-07T02:05:27;95232.59;;;6.84;100.00
20119;BME280;10220;42.716;23.306;2022-12-07T02:07:55;95254.22;;;6.89;100.00
20119;BME280;10220;42.716;23.306;2022-12-07T02:10:28;95224.25;;;6.96;100.00
20119;BME280;10220;42.716;23.306;2022-12-07T02:15:38;95153.44;;;6.57;100.00
20119;BME280;10220;42.716;23.306;2022-12-07T02:26:31;95208.44;;;6.99;100.00
20119;BME280;10220;42.716;23.306;2022-12-07T02:32:36;95209.22;;;6.99;100.00
20119;BME280;10220;42.716;23.306;2022-12-07T02:35:06;95179.97;;;6.72;100.00
20119;BME280;10220;42.716;23.306;2022-12-07T02:37:40;95218.19;;;6.89;100.00
20119;BME280;10220;42.716;23.306;2022-12-07T02:42:57;95222.91;;;7.00;100.00
20119;BME280;10220;42.716;23.306;2022-12-07T02:45:25;95155.66;;;6.60;100.00
20119;BME280;10220;42.716;23.306;2022-12-07T02:47:55;95204.34;;;6.90;100.00
20119;BME280;10220;42.716;23.306;2022-12-07T02:50:23;95216.16;;;6.85;100.00
20119;BME280;10220;42.716;23.306;2022-12-07T02:52:49;95209.50;;;6.76;100.00
20119;BME280;10220;42.716;23.306;2022-12-07T02:55:18;95201.72;;;6.69;100.00
20119;BME280;10220;42.716;23.306;2022-12-07T02:57:58;95203.91;;;6.87;100.00
20119;BME280;10220;42.716;23.306;2022-12-07T03:00:27;95166.84;;;6.52;100.00
20119;BME280;10220;42.716;23.306;2022-12-07T03:03:09;95188.47;;;6.87;100.00
20119;BME280;10220;42.716;23.306;2022-12-07T03:08:13;95177.75;;;6.83;100.00
20119;BME280;10220;42.716;23.306;2022-12-07T03:13:30;95193.91;;;6.48;100.00
20119;BME280;10220;42.716;23.306;2022-12-07T03:18:31;95162.78;;;6.43;100.00
20119;BME280;10220;42.716;23.306;2022-12-07T03:21:02;95186.63;;;6.66;100.00
20119;BME280;10220;42.716;23.306;2022-12-07T03:23:31;95188.22;;;6.67;100.00
20119;BME280;10220;42.716;23.306;2022-12-07T03:26:00;95150.28;;;6.41;100.00
20119;BME280;10220;42.716;23.306;2022-12-07T03:28:31;95195.84;;;6.75;100.00
20119;BME280;10220;42.716;23.306;2022-12-07T03:31:10;95164.72;;;6.56;100.00
20119;BME280;10220;42.716;23.306;2022-12-07T03:34:05;95186.66;;;6.52;100.00
20119;BME280;10220;42.716;23.306;2022-12-07T03:36:34;95175.16;;;5.97;100.00
20119;BME280;10220;42.716;23.306;2022-12-07T03:41:47;95188.22;;;6.39;100.00
20119;BME280;10220;42.716;23.306;2022-12-07T03:44:15;95196.28;;;6.36;100.00
20119;BME280;10220;42.716;23.306;2022-12-07T03:47:06;95184.06;;;6.52;100.00
20119;BME280;10220;42.716;23.306;2022-12-07T03:55:33;95183.16;;;6.16;100.00
20119;BME280;10220;42.716;23.306;2022-12-07T03:58:05;95150.00;;;5.70;100.00
20119;BME280;10220;42.716;23.306;2022-12-07T04:00:32;95144.16;;;5.39;100.00
20119;BME280;10220;42.716;23.306;2022-12-07T04:02:58;95175.78;;;5.99;100.00
20119;BME280;10220;42.716;23.306;2022-12-07T04:05:24;95172.69;;;6.03;100.00
20119;BME280;10220;42.716;23.306;2022-12-07T04:07:49;95152.84;;;5.97;100.00
20119;BME280;10220;42.716;23.306;2022-12-07T04:10:15;95170.22;;;6.24;100.00
20119;BME280;10220;42.716;23.306;2022-12-07T04:12:40;95155.63;;;5.88;100.00
20119;BME280;10220;42.716;23.306;2022-12-07T04:15:07;95127.47;;;5.58;100.00
20119;BME280;10220;42.716;23.306;2022-12-07T04:17:32;95183.66;;;5.97;100.00
20119;BME280;10220;42.716;23.306;2022-12-07T04:19:58;95137.31;;;5.69;100.00
20119;BME280;10220;42.716;23.306;2022-12-07T04:22:23;95129.59;;;5.69;100.00
20119;BME280;10220;42.716;23.306;2022-12-07T04:24:48;95176.25;;;5.80;100.00
20119;BME280;10220;42.716;23.306;2022-12-07T04:27:14;95191.31;;;6.05;100.00
20119;BME280;10220;42.716;23.306;2022-12-07T04:29:39;95204.34;;;5.82;100.00
20119;BME280;10220;42.716;23.306;2022-12-07T04:32:05;95175.75;;;5.62;100.00
20119;BME280;10220;42.716;23.306;2022-12-07T04:34:30;95171.22;;;5.64;100.00
20119;BME280;10220;42.716;23.306;2022-12-07T04:36:56;95160.34;;;5.84;100.00
20119;BME280;10220;42.716;23.306;2022-12-07T04:39:29;95181.06;;;5.83;100.00
20119;BME280;10220;42.716;23.306;2022-12-07T04:41:55;95139.22;;;5.52;100.00
20119;BME280;10220;42.716;23.306;2022-12-07T04:44:21;95182.72;;;5.76;100.00
20119;BME280;10220;42.716;23.306;2022-12-07T04:46:47;95195.50;;;5.62;100.00
20119;BME280;10220;42.716;23.306;2022-12-07T04:49:13;95183.97;;;5.35;100.00
20119;BME280;10220;42.716;23.306;2022-12-07T04:51:39;95199.59;;;5.71;100.00
20119;BME280;10220;42.716;23.306;2022-12-07T04:54:06;95178.84;;;5.80;100.00
20119;BME280;10220;42.716;23.306;2022-12-07T04:56:31;95161.88;;;5.49;100.00
20119;BME280;10220;42.716;23.306;2022-12-07T04:58:57;95182.06;;;5.52;100.00
20119;BME280;10220;42.716;23.306;2022-12-07T05:01:23;95188.94;;;5.37;100.00
20119;BME280;10220;42.716;23.306;2022-12-07T05:03:49;95199.59;;;5.71;100.00
20119;BME280;10220;42.716;23.306;2022-12-07T05:06:15;95139.34;;;5.14;100.00
20119;BME280;10220;42.716;23.306;2022-12-07T05:08:41;95179.13;;;5.63;100.00
20119;BME280;10220;42.716;23.306;2022-12-07T05:11:08;95161.81;;;5.12;100.00
20119;BME280;10220;42.716;23.306;2022-12-07T05:13:34;95192.63;;;5.57;100.00
20119;BME280;10220;42.716;23.306;2022-12-07T05:16:00;95165.41;;;5.25;100.00
20119;BME280;10220;42.716;23.306;2022-12-07T05:18:25;95170.22;;;5.28;100.00
20119;BME280;10220;42.716;23.306;2022-12-07T05:20:51;95174.31;;;5.37;100.00
20119;BME280;10220;42.716;23.306;2022-12-07T05:23:17;95169.06;;;5.31;100.00
20119;BME280;10220;42.716;23.306;2022-12-07T05:25:43;95190.53;;;5.38;100.00
20119;BME280;10220;42.716;23.306;2022-12-07T05:28:09;95163.03;;;5.02;100.00
20119;BME280;10220;42.716;23.306;2022-12-07T05:30:34;95160.56;;;5.08;100.00
20119;BME280;10220;42.716;23.306;2022-12-07T05:33:00;95175.44;;;5.13;100.00
20119;BME280;10220;42.716;23.306;2022-12-07T05:35:25;95190.13;;;5.49;100.00
20119;BME280;10220;42.716;23.306;2022-12-07T05:37:51;95134.63;;;5.25;100.00
20119;BME280;10220;42.716;23.306;2022-12-07T05:40:16;95186.47;;;5.66;100.00
20119;BME280;10220;42.716;23.306;2022-12-07T05:42:42;95193.78;;;5.54;100.00
20119;BME280;10220;42.716;23.306;2022-12-07T05:45:08;95122.91;;;5.23;100.00
20119;BME280;10220;42.716;23.306;2022-12-07T05:47:34;95188.44;;;5.86;100.00
20119;BME280;10220;42.716;23.306;2022-12-07T05:50:00;95162.09;;;5.84;100.00
20119;BME280;10220;42.716;23.306;2022-12-07T05:52:26;95189.69;;;5.90;100.00
20119;BME280;10220;42.716;23.306;2022-12-07T05:54:51;95183.81;;;5.96;100.00
20119;BME280;10220;42.716;23.306;2022-12-07T05:57:17;95176.03;;;5.89;100.00
20119;BME280;10220;42.716;23.306;2022-12-07T05:59:43;95164.16;;;5.66;100.00
20119;BME280;10220;42.716;23.306;2022-12-07T06:02:11;95181.00;;;5.46;100.00
20119;BME280;10220;42.716;23.306;2022-12-07T06:04:40;95179.84;;;5.04;100.00
20119;BME280;10220;42.716;23.306;2022-12-07T06:07:06;95178.81;;;4.91;100.00
20119;BME280;10220;42.716;23.306;2022-12-07T06:09:33;95120.16;;;4.80;100.00
20119;BME280;10220;42.716;23.306;2022-12-07T06:11:59;95183.50;;;5.32;100.00
20119;BME280;10220;42.716;23.306;2022-12-07T06:14:43;95147.91;;;4.84;100.00
20119;BME280;10220;42.716;23.306;2022-12-07T06:17:09;95196.22;;;5.25;100.00
20119;BME280;10220;42.716;23.306;2022-12-07T06:19:35;95185.53;;;5.44;100.00
20119;BME280;10220;42.716;23.306;2022-12-07T06:22:01;95161.47;;;5.37;100.00
20119;BME280;10220;42.716;23.306;2022-12-07T06:24:27;95185.94;;;5.56;100.00
20119;BME280;10220;42.716;23.306;2022-12-07T06:26:53;95190.00;;;5.65;100.00
20119;BME280;10220;42.716;23.306;2022-12-07T06:29:19;95189.69;;;5.90;100.00
20119;BME280;10220;42.716;23.306;2022-12-07T06:31:45;95183.03;;;5.95;100.00
20119;BME280;10220;42.716;23.306;2022-12-07T06:34:13;95204.53;;;6.17;100.00
20119;BME280;10220;42.716;23.306;2022-12-07T06:36:39;95176.66;;;6.06;100.00
20119;BME280;10220;42.716;23.306;2022-12-07T06:39:05;95209.16;;;6.36;100.00
20119;BME280;10220;42.716;23.306;2022-12-07T06:41:31;95203.53;;;6.03;100.00
20119;BME280;10220;42.716;23.306;2022-12-07T06:43:56;95197.22;;;5.69;100.00
20119;BME280;10220;42.716;23.306;2022-12-07T06:46:22;95209.84;;;6.15;100.00
20119;BME280;10220;42.716;23.306;2022-12-07T06:48:48;95191.97;;;5.85;100.00
20119;BME280;10220;42.716;23.306;2022-12-07T06:51:13;95164.16;;;5.66;100.00
20119;BME280;10220;42.716;23.306;2022-12-07T06:53:39;95193.25;;;6.03;100.00
20119;BME280;10220;42.716;23.306;2022-12-07T06:56:04;95221.66;;;5.87;100.00
20119;BME280;10220;42.716;23.306;2022-12-07T06:58:30;95168.47;;;5.88;100.00
20119;BME280;10220;42.716;23.306;2022-12-07T07:00:55;95199.44;;;6.09;100.00
20119;BME280;10220;42.716;23.306;2022-12-07T07:03:21;95180.09;;;5.62;100.00
20119;BME280;10220;42.716;23.306;2022-12-07T07:05:47;95174.53;;;5.50;100.00
20119;BME280;10220;42.716;23.306;2022-12-07T07:08:13;95168.16;;;5.24;100.00
20119;BME280;10220;42.716;23.306;2022-12-07T07:10:38;95185.41;;;5.16;100.00
20119;BME280;10220;42.716;23.306;2022-12-07T07:13:04;95220.88;;;5.34;100.00
20119;BME280;10220;42.716;23.306;2022-12-07T07:15:30;95217.91;;;5.23;100.00
20119;BME280;10220;42.716;23.306;2022-12-07T07:17:55;95205.28;;;5.14;100.00
20119;BME280;10220;42.716;23.306;2022-12-07T07:20:21;95165.34;;;4.89;100.00
20119;BME280;10220;42.716;23.306;2022-12-07T07:22:47;95201.50;;;5.02;100.00
20119;BME280;10220;42.716;23.306;2022-12-07T07:25:12;95187.03;;;5.09;100.00
20119;BME280;10220;42.716;23.306;2022-12-07T07:27:38;95170.44;;;5.19;100.00
20119;BME280;10220;42.716;23.306;2022-12-07T07:30:04;95201.03;;;5.73;100.00
20119;BME280;10220;42.716;23.306;2022-12-07T07:32:30;95208.06;;;5.34;100.00
20119;BME280;10220;42.716;23.306;2022-12-07T07:34:55;95169.47;;;5.42;100.00
20119;BME280;10220;42.716;23.306;2022-12-07T07:37:21;95159.06;;;5.58;100.00
20119;BME280;10220;42.716;23.306;2022-12-07T07:39:46;95219.03;;;6.10;100.00
20119;BME280;10220;42.716;23.306;2022-12-07T07:42:12;95211.09;;;6.34;100.00
20119;BME280;10220;42.716;23.306;2022-12-07T07:44:37;95160.94;;;6.38;100.00
20119;BME280;10220;42.716;23.306;2022-12-07T07:47:02;95158.50;;;6.50;100.00
20119;BME280;10220;42.716;23.306;2022-12-07T07:49:28;95199.81;;;6.78;100.00
20119;BME280;10220;42.716;23.306;2022-12-07T07:51:53;95196.38;;;6.85;100.00
20119;BME280;10220;42.716;23.306;2022-12-07T07:54:19;95204.16;;;6.92;100.00
20119;BME280;10220;42.716;23.306;2022-12-07T07:56:44;95175.25;;;6.90;100.00
20119;BME280;10220;42.716;23.306;2022-12-07T07:59:09;95186.13;;;7.06;100.00
20119;BME280;10220;42.716;23.306;2022-12-07T08:01:35;95160.66;;;6.97;100.00
20119;BME280;10220;42.716;23.306;2022-12-07T08:04:00;95218.47;;;7.29;100.00
20119;BME280;10220;42.716;23.306;2022-12-07T08:06:26;95198.16;;;7.20;100.00
20119;BME280;10220;42.716;23.306;2022-12-07T08:08:52;95196.56;;;7.19;100.00
20119;BME280;10220;42.716;23.306;2022-12-07T08:11:17;95203.69;;;7.17;100.00
20119;BME280;10220;42.716;23.306;2022-12-07T08:13:45;95212.56;;;7.14;100.00
20119;BME280;10220;42.716;23.306;2022-12-07T08:16:11;95187.47;;;7.02;100.00
20119;BME280;10220;42.716;23.306;2022-12-07T08:18:38;95200.22;;;7.10;100.00
20119;BME280;10220;42.716;23.306;2022-12-07T08:21:06;95213.38;;;7.15;100.00
20119;BME280;10220;42.716;23.306;2022-12-07T08:23:32;95212.50;;;7.08;100.00
20119;BME280;10220;42.716;23.306;2022-12-07T08:26:03;95152.16;;;6.96;100.00
20119;BME280;10220;42.716;23.306;2022-12-07T08:28:29;95193.22;;;7.39;100.00
20119;BME280;10220;42.716;23.306;2022-12-07T08:31:11;95186.84;;;7.35;100.00
20119;BME280;10220;42.716;23.306;2022-12-07T08:33:38;95204.81;;;7.29;100.00
20119;BME280;10220;42.716;23.306;2022-12-07T08:36:06;95211.53;;;7.09;100.00
20119;BME280;10220;42.716;23.306;2022-12-07T08:38:37;95170.88;;;6.90;100.00
20119;BME280;10220;42.716;23.306;2022-12-07T08:41:02;95206.69;;;7.20;100.00
20119;BME280;10220;42.716;23.306;2022-12-07T08:43:28;95205.91;;;7.20;100.00
20119;BME280;10220;42.716;23.306;2022-12-07T08:48:26;95202.38;;;7.42;100.00
20119;BME280;10220;42.716;23.306;2022-12-07T08:50:52;95199.31;;;7.53;100.00
20119;BME280;10220;42.716;23.306;2022-12-07T08:53:17;95190.09;;;7.44;100.00
20119;BME280;10220;42.716;23.306;2022-12-07T08:55:44;95196.66;;;7.46;100.00
20119;BME280;10220;42.716;23.306;2022-12-07T08:58:10;95188.75;;;7.48;100.00
20119;BME280;10220;42.716;23.306;2022-12-07T09:00:36;95170.81;;;7.40;100.00
20119;BME280;10220;42.716;23.306;2022-12-07T09:03:01;95168.19;;;7.33;100.00
20119;BME280;10220;42.716;23.306;2022-12-07T09:05:27;95151.44;;;7.44;100.00
20119;BME280;10220;42.716;23.306;2022-12-07T09:07:56;95176.69;;;7.48;100.00
20119;BME280;10220;42.716;23.306;2022-12-07T09:10:22;95175.13;;;7.54;100.00
20119;BME280;10220;42.716;23.306;2022-12-07T09:12:48;95161.22;;;7.48;100.00
20119;BME280;10220;42.716;23.306;2022-12-07T09:15:14;95169.66;;;7.42;100.00
20119;BME280;10220;42.716;23.306;2022-12-07T09:17:39;95152.72;;;7.54;100.00
20119;BME280;10220;42.716;23.306;2022-12-07T09:20:05;95116.25;;;7.30;100.00
20119;BME280;10220;42.716;23.306;2022-12-07T09:22:31;95172.56;;;7.54;100.00
20119;BME280;10220;42.716;23.306;2022-12-07T09:24:57;95163.22;;;7.53;100.00
20119;BME280;10220;42.716;23.306;2022-12-07T09:27:24;95142.06;;;7.57;100.00
20119;BME280;10220;42.716;23.306;2022-12-07T09:29:49;95107.09;;;7.48;100.00
20119;BME280;10220;42.716;23.306;2022-12-07T09:32:14;95163.03;;;7.75;100.00
20119;BME280;10220;42.716;23.306;2022-12-07T09:34:40;95161.09;;;7.56;100.00
20119;BME280;10220;42.716;23.306;2022-12-07T09:37:05;95163.34;;;7.65;100.00
20119;BME280;10220;42.716;23.306;2022-12-07T09:39:31;95141.03;;;7.79;100.00
20119;BME280;10220;42.716;23.306;2022-12-07T09:41:57;95140.31;;;7.85;100.00
20119;BME280;10220;42.716;23.306;2022-12-07T09:44:25;95136.94;;;7.84;100.00
20119;BME280;10220;42.716;23.306;2022-12-07T09:46:52;95136.59;;;7.94;100.00
20119;BME280;10220;42.716;23.306;2022-12-07T09:49:23;95103.31;;;7.44;100.00
20119;BME280;10220;42.716;23.306;2022-12-07T09:52:03;95123.38;;;8.03;100.00
20119;BME280;10220;42.716;23.306;2022-12-07T09:54:44;95112.09;;;8.04;100.00
20119;BME280;10220;42.716;23.306;2022-12-07T09:57:11;95114.03;;;8.29;100.00
20119;BME280;10220;42.716;23.306;2022-12-07T09:59:38;95134.69;;;8.29;100.00
20119;BME280;10220;42.716;23.306;2022-12-07T10:02:40;95111.06;;;8.26;100.00
20119;BME280;10220;42.716;23.306;2022-12-07T10:05:15;95125.63;;;8.13;100.00
20119;BME280;10220;42.716;23.306;2022-12-07T10:07:41;95122.41;;;8.31;100.00
20119;BME280;10220;42.716;23.306;2022-12-07T10:10:15;95099.53;;;8.22;100.00
20119;BME280;10220;42.716;23.306;2022-12-07T10:15:51;95110.78;;;8.15;100.00
20119;BME280;10220;42.716;23.306;2022-12-07T10:18:27;95092.09;;;8.13;100.00
20119;BME280;10220;42.716;23.306;2022-12-07T10:23:30;95087.78;;;8.53;100.00
20119;BME280;10220;42.716;23.306;2022-12-07T10:25:55;95084.69;;;8.77;100.00
20119;BME280;10220;42.716;23.306;2022-12-07T10:28:21;95096.25;;;8.94;100.00
20119;BME280;10220;42.716;23.306;2022-12-07T10:33:28;95077.78;;;9.03;100.00
20119;BME280;10220;42.716;23.306;2022-12-07T10:35:54;95074.56;;;8.76;100.00
20119;BME280;10220;42.716;23.306;2022-12-07T10:38:20;95068.19;;;8.78;100.00
20119;BME280;10220;42.716;23.306;2022-12-07T10:40:45;95057.06;;;8.77;100.00
20119;BME280;10220;42.716;23.306;2022-12-07T10:58:28;95048.53;;;8.83;100.00
20119;BME280;10220;42.716;23.306;2022-12-07T11:06:40;95018.13;;;8.79;100.00
20119;BME280;10220;42.716;23.306;2022-12-07T11:17:52;95027.31;;;9.14;100.00
20119;BME280;10220;42.716;23.306;2022-12-07T11:23:35;95017.19;;;9.12;100.00
20119;BME280;10220;42.716;23.306;2022-12-07T11:26:11;95003.69;;;9.17;100.00
20119;BME280;10220;42.716;23.306;2022-12-07T11:32:08;94952.41;;;8.94;100.00
20119;BME280;10220;42.716;23.306;2022-12-07T11:34:39;94971.47;;;9.13;100.00
20119;BME280;10220;42.716;23.306;2022-12-07T11:37:15;94987.19;;;9.24;100.00
20119;BME280;10220;42.716;23.306;2022-12-07T11:39:51;95001.69;;;9.38;100.00
20119;BME280;10220;42.716;23.306;2022-12-07T11:42:23;94990.75;;;9.55;100.00
20119;BME280;10220;42.716;23.306;2022-12-07T11:45:00;95000.66;;;9.78;100.00
20119;BME280;10220;42.716;23.306;2022-12-07T11:47:48;94964.84;;;9.81;100.00
20119;BME280;10220;42.716;23.306;2022-12-07T11:50:40;94994.88;;;10.01;100.00
20119;BME280;10220;42.716;23.306;2022-12-07T11:59:10;94981.94;;;9.89;100.00
20119;BME280;10220;42.716;23.306;2022-12-07T12:05:37;94955.44;;;9.93;100.00
20119;BME280;10220;42.716;23.306;2022-12-07T12:07:32;94978.16;;;10.04;100.00
20119;BME280;10220;42.716;23.306;2022-12-07T12:21:31;94930.13;;;10.14;100.00
20119;BME280;10220;42.716;23.306;2022-12-07T12:24:01;94899.25;;;10.19;100.00
20119;BME280;10220;42.716;23.306;2022-12-07T12:26:32;94949.69;;;10.41;100.00
20119;BME280;10220;42.716;23.306;2022-12-07T12:29:02;94939.72;;;10.45;100.00
20119;BME280;10220;42.716;23.306;2022-12-07T12:31:33;94914.59;;;10.14;100.00
20119;BME280;10220;42.716;23.306;2022-12-07T12:34:04;94932.66;;;10.27;100.00
20119;BME280;10220;42.716;23.306;2022-12-07T12:47:43;94936.19;;;10.70;100.00
20119;BME280;10220;42.716;23.306;2022-12-07T12:50:27;94895.09;;;10.73;100.00
20119;BME280;10220;42.716;23.306;2022-12-07T12:53:12;94918.50;;;10.91;100.00
20119;BME280;10220;42.716;23.306;2022-12-07T13:03:55;94909.97;;;11.33;100.00
20119;BME280;10220;42.716;23.306;2022-12-07T13:08:50;94927.84;;;11.41;100.00
20119;BME280;10220;42.716;23.306;2022-12-07T13:11:39;94894.84;;;11.30;100.00
20119;BME280;10220;42.716;23.306;2022-12-07T13:20:02;94925.44;;;10.97;100.00
20119;BME280;10220;42.716;23.306;2022-12-07T13:27:31;94912.88;;;10.94;100.00
20119;BME280;10220;42.716;23.306;2022-12-07T13:29:57;94917.59;;;11.04;100.00
20119;BME280;10220;42.716;23.306;2022-12-07T13:32:28;94919.53;;;10.84;100.00
20119;BME280;10220;42.716;23.306;2022-12-07T13:34:55;94917.91;;;10.65;100.00
20119;BME280;10220;42.716;23.306;2022-12-07T13:37:29;94910.56;;;10.86;100.00
20119;BME280;10220;42.716;23.306;2022-12-07T13:39:57;94916.75;;;10.85;100.00
20119;BME280;10220;42.716;23.306;2022-12-07T13:42:31;94907.81;;;10.81;100.00
20119;BME280;10220;42.716;23.306;2022-12-07T13:44:58;94912.78;;;10.83;100.00
20119;BME280;10220;42.716;23.306;2022-12-07T13:47:41;94883.47;;;10.58;100.00
20119;BME280;10220;42.716;23.306;2022-12-07T13:50:25;94906.59;;;10.84;100.00
20119;BME280;10220;42.716;23.306;2022-12-07T13:52:55;94912.72;;;10.89;100.00
20119;BME280;10220;42.716;23.306;2022-12-07T13:55:20;94886.06;;;10.82;100.00
20119;BME280;10220;42.716;23.306;2022-12-07T13:57:49;94867.22;;;10.75;100.00
20119;BME280;10220;42.716;23.306;2022-12-07T14:00:17;94905.66;;;11.03;100.00
20119;BME280;10220;42.716;23.306;2022-12-07T14:05:38;94861.28;;;10.93;100.00
20119;BME280;10220;42.716;23.306;2022-12-07T14:10:39;94889.50;;;11.25;100.00
20119;BME280;10220;42.716;23.306;2022-12-07T14:15:52;94898.72;;;11.21;100.00
20119;BME280;10220;42.716;23.306;2022-12-07T14:18:27;94911.41;;;11.29;100.00
20119;BME280;10220;42.716;23.306;2022-12-07T14:21:15;94908.53;;;11.12;100.00
20119;BME280;10220;42.716;23.306;2022-12-07T14:23:41;94892.81;;;10.90;100.00
20119;BME280;10220;42.716;23.306;2022-12-07T14:26:07;94909.50;;;10.94;100.00
20119;BME280;10220;42.716;23.306;2022-12-07T14:28:36;94886.00;;;10.64;100.00
20119;BME280;10220;42.716;23.306;2022-12-07T14:31:03;94838.19;;;10.43;100.00
20119;BME280;10220;42.716;23.306;2022-12-07T14:33:29;94923.91;;;10.90;100.00
20119;BME280;10220;42.716;23.306;2022-12-07T14:35:55;94920.75;;;10.81;100.00
20119;BME280;10220;42.716;23.306;2022-12-07T14:38:23;94895.09;;;10.73;100.00
20119;BME280;10220;42.716;23.306;2022-12-07T14:40:50;94920.56;;;11.07;100.00
20119;BME280;10220;42.716;23.306;2022-12-07T14:43:17;94923.72;;;10.85;100.00
20119;BME280;10220;42.716;23.306;2022-12-07T14:45:44;94909.53;;;10.63;100.00
20119;BME280;10220;42.716;23.306;2022-12-07T14:48:14;94885.53;;;10.50;100.00
20119;BME280;10220;42.716;23.306;2022-12-07T14:50:50;94921.13;;;10.54;100.00
20119;BME280;10220;42.716;23.306;2022-12-07T14:53:18;94917.94;;;10.58;100.00
20119;BME280;10220;42.716;23.306;2022-12-07T14:55:45;94914.03;;;10.43;100.00
20119;BME280;10220;42.716;23.306;2022-12-07T14:58:15;94906.31;;;10.37;100.00
20119;BME280;10220;42.716;23.306;2022-12-07T15:00:41;94918.47;;;10.36;100.00
20119;BME280;10220;42.716;23.306;2022-12-07T15:03:07;94920.56;;;10.15;100.00
20119;BME280;10220;42.716;23.306;2022-12-07T15:05:33;94911.56;;;10.24;100.00
20119;BME280;10220;42.716;23.306;2022-12-07T15:07:58;94900.47;;;10.10;100.00
20119;BME280;10220;42.716;23.306;2022-12-07T15:10:30;94910.47;;;10.00;100.00
20119;BME280;10220;42.716;23.306;2022-12-07T15:13:01;94907.94;;;9.75;100.00
20119;BME280;10220;42.716;23.306;2022-12-07T15:15:47;94914.31;;;9.72;100.00